Saint-Anicet, Canada
Current Conditions -  °F | °C
As of 11:53 AM on Thursday 30 Oct 2014 (Local Time) from KMSS Reporting Station
Broken Clouds Broken Clouds  
Wind Chill: 40°   Ceiling: 2900
Heat Index: 44°   Visibility: 10mi
Dew Point: 34°   Wind: 7mph
Humidity: 68%   Direction: 250°WSW
Pressure: 30.02"   Gusts: NA
Location:  45.13°N, 74.35°W
Report Text: KMSS 301553Z AUTO 25006KT 10SM BKN029 07/01 A3002 RMK AO2 SLP168 T00670011
Loading
Personal Weather Stations






























Interactive Weather Map
Tropical Storm Tracking
New forecast layout! Learn more

10-Day Weather Forecast

Advertisements
Track Severe Weather on mobile